Weather at Faleolo International Airport

Public forecast

Using degrees Celsius for public forecast. Weather courtesy of forecast.io.

Current aviation weather report (METAR) for Faleolo International Airport

Retrieved 2020/10/31 07:00 UTC (6 minutes ago):

NSFA 310700Z 15004KT 9999 FEW022 SCT050 BKN160 25/24 Q1015

Aviation forecast (TAF) for Faleolo International Airport

Retrieved 2020/10/31 06:00 UTC (1 hour ago):

TAF NSFA 310520Z 3106/0106 08008KT 9999 -SHRA SCT018 SCT045 BKN100 TEMPO 3106/3118 5000 TSRA BKN015 FEW017CB PROB30 TEMPO 0100/0106 5000 TSRA BKN015 FEW017CB